createdAt,value
2018-01-08T00:00:50.704Z,20.14
2018-01-08T00:01:50.731Z,20.13
2018-01-08T00:02:50.777Z,20.09
2018-01-08T00:03:50.798Z,20.07
2018-01-08T00:04:50.831Z,20.10
2018-01-08T00:05:50.882Z,20.16
2018-01-08T00:06:50.896Z,20.07
2018-01-08T00:07:50.928Z,20.16
2018-01-08T00:08:50.980Z,20.13
2018-01-08T00:09:51.003Z,20.07
2018-01-08T00:10:51.035Z,20.09
2018-01-08T00:11:51.093Z,20.11
2018-01-08T00:12:51.095Z,20.18
2018-01-08T00:13:51.126Z,20.18
2018-01-08T00:14:51.188Z,20.07
2018-01-08T00:15:51.198Z,20.13
2018-01-08T00:16:51.238Z,20.13
2018-01-08T00:17:51.269Z,20.14
2018-01-08T00:18:51.298Z,20.13
2018-01-08T00:19:51.338Z,19.96
2018-01-08T00:20:51.367Z,20.10
2018-01-08T00:21:51.416Z,20.04
2018-01-08T00:22:51.431Z,20.11
2018-01-08T00:23:51.464Z,20.09
2018-01-08T00:24:51.511Z,20.10
2018-01-08T00:25:51.536Z,20.10
2018-01-08T00:26:51.566Z,20.14
2018-01-08T00:27:51.606Z,20.19
2018-01-08T00:28:51.642Z,20.11
2018-01-08T00:29:51.667Z,20.06
2018-01-08T00:30:51.720Z,20.09
2018-01-08T00:31:51.742Z,20.18
2018-01-08T00:32:51.771Z,20.07
2018-01-08T00:33:51.799Z,20.10
2018-01-08T00:34:51.828Z,20.07
2018-01-08T00:35:51.869Z,20.11
2018-01-08T00:36:51.904Z,20.16
2018-01-08T00:37:51.920Z,20.16
2018-01-08T00:38:51.968Z,20.13
2018-01-08T00:39:52.009Z,20.13
2018-01-08T00:40:52.024Z,20.06
2018-01-08T00:41:52.073Z,20.07
2018-01-08T00:42:52.165Z,20.19
2018-01-08T00:43:52.136Z,20.07
2018-01-08T00:44:52.165Z,20.14
2018-01-08T00:45:52.202Z,20.14
2018-01-08T00:46:52.231Z,20.14
2018-01-08T00:47:52.254Z,20.13
2018-01-08T00:48:52.297Z,20.14
2018-01-08T00:49:52.323Z,20.10
2018-01-08T00:50:52.356Z,20.13
2018-01-08T00:51:52.391Z,20.10
2018-01-08T00:52:52.440Z,20.18
2018-01-08T00:53:52.462Z,20.10
2018-01-08T00:54:52.498Z,20.18
2018-01-08T00:55:52.534Z,20.13
2018-01-08T00:56:52.553Z,20.18
2018-01-08T00:57:52.588Z,20.06
2018-01-08T00:58:52.643Z,20.09
2018-01-08T00:59:52.656Z,20.13
2018-01-08T01:00:52.686Z,20.18
2018-01-08T01:01:52.735Z,20.07
2018-01-08T01:02:52.753Z,20.13
2018-01-08T01:03:52.786Z,20.13
2018-01-08T01:04:52.820Z,20.07
2018-01-08T01:05:52.865Z,20.13
2018-01-08T01:06:52.887Z,20.14
2018-01-08T01:07:52.917Z,20.07
2018-01-08T01:08:52.966Z,20.13
2018-01-08T01:09:53.283Z,20.09
2018-01-08T01:10:53.018Z,20.16
2018-01-08T01:11:53.066Z,20.16
2018-01-08T01:12:53.085Z,20.13
2018-01-08T01:13:53.120Z,20.16
2018-01-08T01:14:53.175Z,20.10
2018-01-08T01:15:53.196Z,20.10
2018-01-08T01:16:53.227Z,20.11
2018-01-08T01:17:53.272Z,20.06
2018-01-08T01:18:53.282Z,20.14
2018-01-08T01:19:53.324Z,20.10
2018-01-08T01:20:53.352Z,20.13
2018-01-08T01:21:53.388Z,20.18
2018-01-08T01:22:53.418Z,20.11
2018-01-08T01:23:53.450Z,20.16
2018-01-08T01:24:53.506Z,20.16
2018-01-08T01:25:53.515Z,20.18
2018-01-08T01:26:53.552Z,20.13
2018-01-08T01:27:53.602Z,20.16
2018-01-08T01:28:53.625Z,20.10
2018-01-08T01:29:53.664Z,20.21
2018-01-08T01:30:53.689Z,20.22
2018-01-08T01:31:53.715Z,20.06
2018-01-08T01:32:53.746Z,20.11
2018-01-08T01:33:53.793Z,20.13
2018-01-08T01:34:53.821Z,20.14
2018-01-08T01:35:53.859Z,20.16
2018-01-08T01:36:53.880Z,20.13
2018-01-08T01:37:53.916Z,20.09
2018-01-08T01:38:53.950Z,20.10
2018-01-08T01:39:54.094Z,20.10
2018-01-08T01:40:54.025Z,20.06
2018-01-08T01:41:54.046Z,20.16
2018-01-08T01:42:54.091Z,20.18
2018-01-08T01:43:54.135Z,20.11
2018-01-08T01:44:54.148Z,20.07
2018-01-08T01:45:54.178Z,20.10
2018-01-08T01:46:54.232Z,20.10
2018-01-08T01:47:54.251Z,20.18
2018-01-08T01:48:54.276Z,20.18
2018-01-08T01:49:54.325Z,20.13
2018-01-08T01:50:54.361Z,20.18
2018-01-08T01:51:54.377Z,20.13
2018-01-08T01:52:54.410Z,20.13
2018-01-08T01:53:54.449Z,20.11
2018-01-08T01:54:54.477Z,20.10
2018-01-08T01:55:54.519Z,20.10
2018-01-08T01:56:54.565Z,20.13
2018-01-08T01:57:54.576Z,20.16
2018-01-08T01:58:54.608Z,20.16
2018-01-08T01:59:54.665Z,20.13
2018-01-08T02:00:54.686Z,20.16
2018-01-08T02:01:54.708Z,20.18
2018-01-08T02:02:54.752Z,20.16
2018-01-08T02:03:54.774Z,20.19
2018-01-08T02:04:54.821Z,20.14
2018-01-08T02:05:54.864Z,20.21
2018-01-08T02:06:54.882Z,18.81
2018-01-08T02:07:54.905Z,17.48
2018-01-08T02:08:54.948Z,16.96
2018-01-08T02:09:55.286Z,16.42
2018-01-08T02:10:55.019Z,16.12
2018-01-08T02:11:55.050Z,15.98
2018-01-08T02:12:55.098Z,15.82
2018-01-08T02:13:55.114Z,15.84
2018-01-08T02:14:55.145Z,15.73
2018-01-08T02:15:55.193Z,15.90
2018-01-08T02:16:55.211Z,15.62
2018-01-08T02:17:55.236Z,15.83
2018-01-08T02:18:55.291Z,15.80
2018-01-08T02:19:55.298Z,15.95
2018-01-08T02:20:55.349Z,15.79
2018-01-08T02:21:55.375Z,15.70
2018-01-08T02:22:55.396Z,15.61
2018-01-08T02:23:55.429Z,15.46
2018-01-08T02:24:55.470Z,15.52
2018-01-08T02:25:55.494Z,15.40
2018-01-08T02:26:55.526Z,15.35
2018-01-08T02:27:55.558Z,15.44
2018-01-08T02:28:55.607Z,15.06
2018-01-08T02:29:55.619Z,14.78
2018-01-08T02:30:55.650Z,15.22
2018-01-08T02:31:55.705Z,15.47
2018-01-08T02:32:55.715Z,15.49
2018-01-08T02:33:55.745Z,15.49
2018-01-08T02:34:55.799Z,15.64
2018-01-08T02:35:55.811Z,15.73
2018-01-08T02:36:55.836Z,15.54
2018-01-08T02:37:55.883Z,15.59
2018-01-08T02:38:55.914Z,15.44
2018-01-08T02:39:55.931Z,15.59
2018-01-08T02:40:55.968Z,15.49
2018-01-08T02:41:55.995Z,15.44
2018-01-08T02:42:56.039Z,15.39
2018-01-08T02:43:56.074Z,15.37
2018-01-08T02:44:56.108Z,15.61
2018-01-08T02:45:56.133Z,15.65
2018-01-08T02:46:56.765Z,15.42
2018-01-08T02:47:56.213Z,15.44
2018-01-08T02:48:56.223Z,15.59
2018-01-08T02:49:56.248Z,15.46
2018-01-08T02:50:56.300Z,15.44
2018-01-08T02:51:56.317Z,15.15
2018-01-08T02:52:56.350Z,15.11
2018-01-08T02:53:56.380Z,15.21
2018-01-08T02:54:56.403Z,15.19
2018-01-08T02:55:56.431Z,14.99
2018-01-08T02:56:56.472Z,14.81
2018-01-08T02:57:56.490Z,14.99
2018-01-08T02:58:56.541Z,14.94
2018-01-08T02:59:56.566Z,14.84
2018-01-08T03:00:56.610Z,14.97
2018-01-08T03:01:56.615Z,15.11
2018-01-08T03:02:56.649Z,15.07
2018-01-08T03:03:56.692Z,15.11
2018-01-08T03:04:56.722Z,14.78
2018-01-08T03:05:56.740Z,15.03
2018-01-08T03:06:56.797Z,14.86
2018-01-08T03:07:56.814Z,14.62
2018-01-08T03:08:56.844Z,14.77
2018-01-08T03:09:58.075Z,14.60
2018-01-08T03:10:56.899Z,14.73
2018-01-08T03:11:56.928Z,14.48
2018-01-08T03:12:56.971Z,14.68
2018-01-08T03:13:57.003Z,14.66
2018-01-08T03:14:57.129Z,14.53
2018-01-08T03:15:57.063Z,14.25
2018-01-08T03:16:57.087Z,14.04
2018-01-08T03:17:57.132Z,14.41
2018-01-08T03:18:57.155Z,14.58
2018-01-08T03:19:57.177Z,14.51
2018-01-08T03:20:57.219Z,14.72
2018-01-08T03:21:57.230Z,14.94
2018-01-08T03:22:57.267Z,14.92
2018-01-08T03:23:57.326Z,14.96
2018-01-08T03:24:57.328Z,14.97
2018-01-08T03:25:57.371Z,14.91
2018-01-08T03:26:57.406Z,14.81
2018-01-08T03:27:57.434Z,14.65
2018-01-08T03:28:57.470Z,14.68
2018-01-08T03:29:57.495Z,14.88
2018-01-08T03:30:57.508Z,14.66
2018-01-08T03:31:57.559Z,14.62
2018-01-08T03:32:57.617Z,14.97
2018-01-08T03:33:57.629Z,15.00
2018-01-08T03:34:57.650Z,14.68
2018-01-08T03:35:57.671Z,14.66
2018-01-08T03:36:57.715Z,14.53
2018-01-08T03:37:58.046Z,14.50
2018-01-08T03:38:57.765Z,14.60
2018-01-08T03:39:57.817Z,14.65
2018-01-08T03:40:57.827Z,14.69
2018-01-08T03:41:57.859Z,14.96
2018-01-08T03:42:57.912Z,14.97
2018-01-08T03:43:57.936Z,15.04
2018-01-08T03:44:57.957Z,14.85
2018-01-08T03:45:57.995Z,14.79
2018-01-08T03:46:58.025Z,15.09
2018-01-08T03:47:58.049Z,15.11
2018-01-08T03:48:58.080Z,15.03
2018-01-08T03:49:58.123Z,15.02
2018-01-08T03:50:58.153Z,14.97
2018-01-08T03:51:58.190Z,15.07
2018-01-08T03:52:58.226Z,15.19
2018-01-08T03:53:58.244Z,15.02
2018-01-08T03:54:58.270Z,15.15
2018-01-08T03:55:58.320Z,15.21
2018-01-08T03:56:58.346Z,15.28
2018-01-08T03:57:58.362Z,15.28
2018-01-08T03:58:58.404Z,15.35
2018-01-08T03:59:58.438Z,15.21
2018-01-08T04:00:58.471Z,15.21
2018-01-08T04:01:58.533Z,15.11
2018-01-08T04:02:58.552Z,15.15
2018-01-08T04:03:58.570Z,15.07
2018-01-08T04:04:58.595Z,15.15
2018-01-08T04:05:58.649Z,15.31
2018-01-08T04:06:58.666Z,15.21
2018-01-08T04:07:58.676Z,15.03
2018-01-08T04:08:58.730Z,15.25
2018-01-08T04:09:58.748Z,15.24
2018-01-08T04:10:58.779Z,15.43
2018-01-08T04:11:58.827Z,15.25
2018-01-08T04:12:58.842Z,15.22
2018-01-08T04:13:58.873Z,15.03
2018-01-08T04:14:58.934Z,14.79
2018-01-08T04:15:58.929Z,15.19
2018-01-08T04:16:58.967Z,15.42
2018-01-08T04:17:59.001Z,15.59
2018-01-08T04:18:59.023Z,15.68
2018-01-08T04:19:59.420Z,15.82
2018-01-08T04:20:59.112Z,16.12
2018-01-08T04:21:59.174Z,16.28
2018-01-08T04:22:59.172Z,16.38
2018-01-08T04:23:59.190Z,16.41
2018-01-08T04:24:59.257Z,16.42
2018-01-08T04:25:59.302Z,16.50
2018-01-08T04:26:59.327Z,16.17
2018-01-08T04:27:59.377Z,16.02
2018-01-08T04:28:59.363Z,16.21
2018-01-08T04:29:59.408Z,16.24
2018-01-08T04:30:59.440Z,16.35
2018-01-08T04:31:59.460Z,16.38
2018-01-08T04:32:59.509Z,16.38
2018-01-08T04:33:59.529Z,16.46
2018-01-08T04:34:59.575Z,16.43
2018-01-08T04:35:59.572Z,16.58
2018-01-08T04:36:59.630Z,16.54
2018-01-08T04:37:59.673Z,16.24
2018-01-08T04:38:59.854Z,16.28
2018-01-08T04:39:59.725Z,16.12
2018-01-08T04:40:59.784Z,16.15
2018-01-08T04:41:59.807Z,16.15
2018-01-08T04:42:59.830Z,16.15
2018-01-08T04:43:59.886Z,15.95
2018-01-08T04:44:59.889Z,16.01
2018-01-08T04:45:59.938Z,16.05
2018-01-08T04:46:59.953Z,16.15
2018-01-08T04:47:59.989Z,16.20
2018-01-08T04:49:00.032Z,16.15
2018-01-08T04:50:00.090Z,16.24
2018-01-08T04:51:00.107Z,16.16
2018-01-08T04:52:00.141Z,16.20
2018-01-08T04:53:00.192Z,16.21
2018-01-08T04:54:00.192Z,16.21
2018-01-08T04:55:00.235Z,16.15
2018-01-08T04:56:00.292Z,16.15
2018-01-08T04:57:00.315Z,16.28
2018-01-08T04:58:00.347Z,16.24
2018-01-08T04:59:00.386Z,16.38
2018-01-08T05:00:00.408Z,16.53
2018-01-08T05:01:00.451Z,16.43
2018-01-08T05:02:00.465Z,16.26
2018-01-08T05:03:00.507Z,16.39
2018-01-08T05:04:00.534Z,16.46
2018-01-08T05:05:00.552Z,16.61
2018-01-08T05:06:00.577Z,16.61
2018-01-08T05:07:00.609Z,16.84
2018-01-08T05:08:00.666Z,16.91
2018-01-08T05:09:00.712Z,16.93
2018-01-08T05:10:00.734Z,16.93
2018-01-08T05:11:00.763Z,17.02
2018-01-08T05:12:00.809Z,16.87
2018-01-08T05:13:00.841Z,16.68
2018-01-08T05:14:00.859Z,16.66
2018-01-08T05:15:00.908Z,16.81
2018-01-08T05:16:00.942Z,16.96
2018-01-08T05:17:00.948Z,16.99
2018-01-08T05:18:01.008Z,17.09
2018-01-08T05:19:01.018Z,17.06
2018-01-08T05:20:01.049Z,17.11
2018-01-08T05:21:01.077Z,17.29
2018-01-08T05:22:01.099Z,17.06
2018-01-08T05:23:01.153Z,17.08
2018-01-08T05:24:01.165Z,16.57
2018-01-08T05:25:01.230Z,16.69
2018-01-08T05:26:01.234Z,16.87
2018-01-08T05:27:01.288Z,16.96
2018-01-08T05:28:01.323Z,17.11
2018-01-08T05:30:01.370Z,16.94
2018-01-08T05:31:01.406Z,16.87
2018-01-08T05:32:01.457Z,16.42
2018-01-08T05:33:01.557Z,16.29
2018-01-08T05:34:01.498Z,16.10
2018-01-08T05:35:01.537Z,16.39
2018-01-08T05:36:01.591Z,16.50
2018-01-08T05:37:01.613Z,16.72
2018-01-08T05:38:01.647Z,16.56
2018-01-08T05:39:01.656Z,16.61
2018-01-08T05:40:01.702Z,16.76
2018-01-08T05:41:01.738Z,16.78
2018-01-08T05:42:01.796Z,16.74
2018-01-08T05:43:01.805Z,16.97
2018-01-08T05:44:01.840Z,16.87
2018-01-08T05:45:01.888Z,16.79
2018-01-08T05:46:01.910Z,17.02
2018-01-08T05:47:01.942Z,16.99
2018-01-08T05:48:01.988Z,16.99
2018-01-08T05:49:02.014Z,16.61
2018-01-08T05:50:02.046Z,16.58
2018-01-08T05:51:02.097Z,16.35
2018-01-08T05:53:02.157Z,16.58
2018-01-08T05:54:02.214Z,16.61
2018-01-08T05:55:02.220Z,16.57
2018-01-08T05:56:02.250Z,16.78
2018-01-08T05:57:02.292Z,16.93
2018-01-08T05:58:02.338Z,17.09
2018-01-08T05:59:02.368Z,17.02
2018-01-08T06:00:02.391Z,17.09
2018-01-08T06:01:02.443Z,17.29
2018-01-08T06:02:02.481Z,17.30
2018-01-08T06:03:02.778Z,17.20
2018-01-08T06:04:02.562Z,17.24
2018-01-08T06:05:02.593Z,17.24
2018-01-08T06:06:02.625Z,17.31
2018-01-08T06:07:02.902Z,17.33
2018-01-08T06:08:02.719Z,17.56
2018-01-08T06:09:02.735Z,17.27
2018-01-08T06:10:02.787Z,17.48
2018-01-08T06:11:02.803Z,17.34
2018-01-08T06:12:02.853Z,17.39
2018-01-08T06:13:02.893Z,17.27
2018-01-08T06:14:02.922Z,17.46
2018-01-08T06:15:02.982Z,17.49
2018-01-08T06:16:03.013Z,17.36
2018-01-08T06:17:03.040Z,17.39
2018-01-08T06:18:03.078Z,17.52
2018-01-08T06:19:03.120Z,17.71
2018-01-08T06:20:03.150Z,17.46
2018-01-08T06:21:03.201Z,17.52
2018-01-08T06:22:03.228Z,17.63
2018-01-08T06:23:03.254Z,17.56
2018-01-08T06:24:03.332Z,17.36
2018-01-08T06:25:03.333Z,17.52
2018-01-08T06:26:03.397Z,17.52
2018-01-08T06:27:03.423Z,17.76
2018-01-08T06:28:03.466Z,17.70
2018-01-08T06:29:03.510Z,17.82
2018-01-08T06:30:03.539Z,17.83
2018-01-08T06:31:03.588Z,17.90
2018-01-08T06:32:03.614Z,17.92
2018-01-08T06:33:03.912Z,17.79
2018-01-08T06:34:03.703Z,18.03
2018-01-08T06:35:03.738Z,18.00
2018-01-08T06:36:03.756Z,17.64
2018-01-08T06:37:03.823Z,17.68
2018-01-08T06:38:03.845Z,17.72
2018-01-08T06:39:03.889Z,17.97
2018-01-08T06:41:03.990Z,18.05
2018-01-08T06:42:03.985Z,18.00
2018-01-08T06:43:04.058Z,17.97
2018-01-08T06:44:04.074Z,17.87
2018-01-08T06:45:04.122Z,18.03
2018-01-08T06:46:04.162Z,18.11
2018-01-08T06:47:04.193Z,18.11
2018-01-08T06:48:04.246Z,18.25
2018-01-08T06:49:04.272Z,18.29
2018-01-08T06:50:04.325Z,18.38
2018-01-08T06:51:04.356Z,18.31
2018-01-08T06:52:04.392Z,18.44
2018-01-08T06:54:04.459Z,18.19
2018-01-08T06:55:04.517Z,18.22
2018-01-08T06:56:04.556Z,18.31
2018-01-08T06:57:04.592Z,18.37
2018-01-08T06:58:04.647Z,18.38
2018-01-08T06:59:04.653Z,18.29
2018-01-08T07:00:04.711Z,18.23
2018-01-08T07:01:04.730Z,18.07
2018-01-08T07:02:04.759Z,18.10
2018-01-08T07:03:04.814Z,18.04
2018-01-08T07:04:04.854Z,18.08
2018-01-08T07:05:04.908Z,18.13
2018-01-08T07:06:04.918Z,18.34
2018-01-08T07:07:04.972Z,18.52
2018-01-08T07:08:05.014Z,18.68
2018-01-08T07:09:05.027Z,18.68
2018-01-08T07:10:05.140Z,18.59
2018-01-08T07:11:05.127Z,18.55
2018-01-08T07:12:05.148Z,18.62
2018-01-08T07:13:05.196Z,18.60
2018-01-08T07:14:05.230Z,18.71
2018-01-08T07:15:05.270Z,18.62
2018-01-08T07:16:05.289Z,18.56
2018-01-08T07:17:05.331Z,18.58
2018-01-08T07:18:05.369Z,18.65
2018-01-08T07:19:05.417Z,18.70
2018-01-08T07:20:05.483Z,18.63
2018-01-08T07:21:05.495Z,18.56
2018-01-08T07:22:05.502Z,18.52
2018-01-08T07:23:05.761Z,18.44
2018-01-08T07:24:05.577Z,18.28
2018-01-08T07:25:05.614Z,18.01
2018-01-08T07:26:05.901Z,17.95
2018-01-08T07:27:05.701Z,17.94
2018-01-08T07:28:05.705Z,17.85
2018-01-08T07:29:06.013Z,17.90
2018-01-08T07:30:05.796Z,17.70
2018-01-08T07:31:05.837Z,17.74
2018-01-08T07:32:05.870Z,17.49
2018-01-08T07:34:05.947Z,17.41
2018-01-08T07:35:05.997Z,17.24
2018-01-08T07:36:06.015Z,17.46
2018-01-08T07:37:06.055Z,17.45
2018-01-08T07:38:06.075Z,17.60
2018-01-08T07:39:06.134Z,17.67
2018-01-08T07:40:06.846Z,17.59
2018-01-08T07:41:06.192Z,17.38
2018-01-08T07:42:06.239Z,16.97
2018-01-08T07:43:06.243Z,17.23
2018-01-08T07:45:06.343Z,17.48
2018-01-08T07:46:06.369Z,17.51
2018-01-08T07:47:06.404Z,17.49
2018-01-08T07:48:06.428Z,17.57
2018-01-08T07:49:06.682Z,17.38
2018-01-08T07:50:06.504Z,17.09
2018-01-08T07:51:06.540Z,16.91
2018-01-08T07:52:06.591Z,16.89
2018-01-08T07:53:06.626Z,16.89
2018-01-08T07:54:06.655Z,17.08
2018-01-08T07:55:06.678Z,17.31
2018-01-08T07:56:06.742Z,17.23
2018-01-08T07:57:06.763Z,17.06
2018-01-08T07:58:06.908Z,17.14
2018-01-08T07:59:06.824Z,16.93
2018-01-08T08:00:06.792Z,17.09
2018-01-08T08:01:06.864Z,17.04
2018-01-08T08:02:06.895Z,16.87
2018-01-08T08:03:06.907Z,17.02
2018-01-08T08:04:06.945Z,17.23
2018-01-08T08:05:07.570Z,17.44
2018-01-08T08:06:07.016Z,17.45
2018-01-08T08:07:07.048Z,17.63
2018-01-08T08:08:07.120Z,17.67
2018-01-08T08:09:07.137Z,17.67
2018-01-08T08:10:07.183Z,17.64
2018-01-08T08:11:07.204Z,17.59
2018-01-08T08:12:07.247Z,17.71
2018-01-08T08:13:07.256Z,17.94
2018-01-08T08:14:07.292Z,18.11
2018-01-08T08:15:07.330Z,18.13
2018-01-08T08:16:07.388Z,18.04
2018-01-08T08:17:07.395Z,18.05
2018-01-08T08:18:07.433Z,18.11
2018-01-08T08:19:07.462Z,18.29
2018-01-08T08:20:07.521Z,18.25
2018-01-08T08:21:07.562Z,18.08
2018-01-08T08:22:07.567Z,18.13
2018-01-08T08:23:07.596Z,18.23
2018-01-08T08:24:07.632Z,18.29
2018-01-08T08:25:07.673Z,18.45
2018-01-08T08:26:07.727Z,18.37
2018-01-08T08:27:07.732Z,18.13
2018-01-08T08:28:07.796Z,18.26
2018-01-08T08:29:07.798Z,18.38
2018-01-08T08:30:07.860Z,18.43
2018-01-08T08:31:07.890Z,18.37
2018-01-08T08:32:07.917Z,18.35
2018-01-08T08:33:07.952Z,18.18
2018-01-08T08:34:07.990Z,18.23
2018-01-08T08:35:08.023Z,18.37
2018-01-08T08:36:08.061Z,18.53
2018-01-08T08:37:08.112Z,18.44
2018-01-08T08:38:08.120Z,18.34
2018-01-08T08:39:08.150Z,18.18
2018-01-08T08:40:08.230Z,18.33
2018-01-08T08:41:08.222Z,18.34
2018-01-08T08:42:08.261Z,18.38
2018-01-08T08:43:08.288Z,18.43
2018-01-08T08:44:08.325Z,18.28
2018-01-08T08:45:08.332Z,18.35
2018-01-08T08:46:08.390Z,18.23
2018-01-08T08:47:08.459Z,17.85
2018-01-08T08:48:08.462Z,18.05
2018-01-08T08:49:08.498Z,18.13
2018-01-08T08:50:08.540Z,18.07
2018-01-08T08:51:08.583Z,18.23
2018-01-08T08:52:08.606Z,18.26
2018-01-08T08:53:08.635Z,18.41
2018-01-08T08:54:08.677Z,18.58
2018-01-08T08:56:08.752Z,18.19
2018-01-08T08:57:08.806Z,18.22
2018-01-08T08:58:08.830Z,18.16
2018-01-08T08:59:08.866Z,18.23
2018-01-08T09:00:08.901Z,18.33
2018-01-08T09:01:08.952Z,18.19
2018-01-08T09:02:08.960Z,17.94
2018-01-08T09:03:09.002Z,18.08
2018-01-08T09:04:09.053Z,18.16
2018-01-08T09:05:09.060Z,18.29
2018-01-08T09:06:09.116Z,18.19
2018-01-08T09:07:09.138Z,18.37
2018-01-08T09:08:09.169Z,18.40
2018-01-08T09:09:09.220Z,18.38
2018-01-08T09:10:09.225Z,18.37
2018-01-08T09:11:09.259Z,18.15
2018-01-08T09:12:09.304Z,18.10
2018-01-08T09:13:09.345Z,18.25
2018-01-08T09:14:09.372Z,18.28
2018-01-08T09:16:10.248Z,18.35
2018-01-08T09:17:09.469Z,18.37
2018-01-08T09:18:09.514Z,18.29
2018-01-08T09:19:09.552Z,18.33
2018-01-08T09:20:09.585Z,18.25
2018-01-08T09:21:09.601Z,18.26
2018-01-08T09:22:09.640Z,18.08
2018-01-08T09:23:09.706Z,18.20
2018-01-08T09:24:09.693Z,18.25
2018-01-08T09:25:09.748Z,18.25
2018-01-08T09:26:09.787Z,18.08
2018-01-08T09:27:09.817Z,18.18
2018-01-08T09:28:09.838Z,18.26
2018-01-08T09:29:09.874Z,18.22
2018-01-08T09:30:09.908Z,18.18
2018-01-08T09:31:09.967Z,17.92
2018-01-08T09:32:09.996Z,17.87
2018-01-08T09:33:10.022Z,17.87
2018-01-08T09:34:10.045Z,17.83
2018-01-08T09:35:10.085Z,17.78
2018-01-08T09:36:10.124Z,17.86
2018-01-08T09:37:10.170Z,17.97
2018-01-08T09:38:10.163Z,17.97
2018-01-08T09:39:10.235Z,18.03
2018-01-08T09:40:10.238Z,18.19
2018-01-08T09:41:10.272Z,18.23
2018-01-08T09:43:10.356Z,18.40
2018-01-08T09:44:10.578Z,18.37
2018-01-08T09:45:10.413Z,18.41
2018-01-08T09:46:10.457Z,18.26
2018-01-08T09:47:10.512Z,18.15
2018-01-08T09:48:10.510Z,18.20
2018-01-08T09:49:10.554Z,18.35
2018-01-08T09:50:10.572Z,18.35
2018-01-08T09:51:10.609Z,18.41
2018-01-08T09:52:10.620Z,18.31
2018-01-08T09:53:10.670Z,18.38
2018-01-08T09:54:10.700Z,18.55
2018-01-08T09:55:10.728Z,18.65
2018-01-08T09:56:10.783Z,18.78
2018-01-08T09:57:10.800Z,18.93
2018-01-08T09:58:10.858Z,18.98
2018-01-08T09:59:11.130Z,18.89
2018-01-08T10:00:10.917Z,18.80
2018-01-08T10:01:10.941Z,18.89
2018-01-08T10:02:10.979Z,18.80
2018-01-08T10:03:11.019Z,18.86
2018-01-08T10:04:11.050Z,18.89
2018-01-08T10:05:11.076Z,19.04
2018-01-08T10:06:11.142Z,19.30
2018-01-08T10:07:11.146Z,19.07
2018-01-08T10:08:11.188Z,19.14
2018-01-08T10:09:11.245Z,19.62
2018-01-08T10:10:11.264Z,19.45
2018-01-08T10:11:11.287Z,19.29
2018-01-08T10:12:11.345Z,19.18
2018-01-08T10:13:11.352Z,19.14
2018-01-08T10:14:11.445Z,19.12
2018-01-08T10:15:11.429Z,18.93
2018-01-08T10:16:11.477Z,18.86
2018-01-08T10:17:11.492Z,18.83
2018-01-08T10:18:11.495Z,18.73
2018-01-08T10:19:11.549Z,18.75
2018-01-08T10:20:11.594Z,18.74
2018-01-08T10:21:11.615Z,18.88
2018-01-08T10:22:11.679Z,18.78
2018-01-08T10:23:11.705Z,18.73
2018-01-08T10:24:11.722Z,18.81
2018-01-08T10:25:11.766Z,18.80
2018-01-08T10:26:11.805Z,18.75
2018-01-08T10:27:11.825Z,18.73
2018-01-08T10:29:11.900Z,18.81
2018-01-08T10:30:11.933Z,18.88
2018-01-08T10:31:11.977Z,18.83
2018-01-08T10:32:11.996Z,18.86
2018-01-08T10:33:12.046Z,18.84
2018-01-08T10:34:12.065Z,18.68
2018-01-08T10:35:12.120Z,18.63
2018-01-08T10:36:12.152Z,18.43
2018-01-08T10:37:12.160Z,18.50
2018-01-08T10:38:12.189Z,18.56
2018-01-08T10:39:12.242Z,18.55
2018-01-08T10:40:12.255Z,18.55
2018-01-08T10:41:12.299Z,18.53
2018-01-08T10:42:12.333Z,18.53
2018-01-08T10:43:12.359Z,18.58
2018-01-08T10:44:12.393Z,18.52
2018-01-08T10:45:12.457Z,18.52
2018-01-08T10:46:12.469Z,18.47
2018-01-08T10:47:12.506Z,18.45
2018-01-08T10:48:12.544Z,18.56
2018-01-08T10:49:12.567Z,18.55
2018-01-08T10:50:12.604Z,18.58
2018-01-08T10:51:12.631Z,18.44
2018-01-08T10:52:12.641Z,18.31
2018-01-08T10:53:12.984Z,18.34
2018-01-08T10:54:12.754Z,18.07
2018-01-08T10:55:12.776Z,17.97
2018-01-08T10:56:12.796Z,17.94
2018-01-08T10:58:12.879Z,18.04
2018-01-08T10:59:12.897Z,18.03
2018-01-08T11:00:12.932Z,17.95
2018-01-08T11:01:12.969Z,17.92
2018-01-08T11:02:13.024Z,17.98
2018-01-08T11:03:13.529Z,18.07
2018-01-08T11:04:13.500Z,18.18
2018-01-08T11:05:13.129Z,18.15
2018-01-08T11:06:13.922Z,18.15
2018-01-08T11:07:13.167Z,18.33
2018-01-08T11:08:13.225Z,18.37
2018-01-08T11:09:13.208Z,18.41
2018-01-08T11:10:13.279Z,18.37
2018-01-08T11:11:13.303Z,18.40
2018-01-08T11:12:13.341Z,18.47
2018-01-08T11:13:13.426Z,18.50
2018-01-08T11:14:13.408Z,18.26
2018-01-08T11:15:13.524Z,18.23
2018-01-08T11:16:13.478Z,18.23
2018-01-08T11:17:13.514Z,18.26
2018-01-08T11:18:13.544Z,18.34
2018-01-08T11:19:13.653Z,18.22
2018-01-08T11:20:13.877Z,18.35
2018-01-08T11:21:13.924Z,18.37
2018-01-08T11:22:14.941Z,18.45
2018-01-08T11:23:13.790Z,18.40
2018-01-08T11:24:13.725Z,18.43
2018-01-08T11:25:14.056Z,18.53
2018-01-08T11:26:13.827Z,18.31
2018-01-08T11:27:14.252Z,18.37
2018-01-08T11:28:13.904Z,18.29
2018-01-08T11:29:13.977Z,18.40
2018-01-08T11:30:13.944Z,18.11
2018-01-08T11:31:13.990Z,17.92
2018-01-08T11:32:14.260Z,17.83
2018-01-08T11:33:14.063Z,17.85
2018-01-08T11:34:14.094Z,17.94
2018-01-08T11:35:14.129Z,17.86
2018-01-08T11:36:14.200Z,17.82
2018-01-08T11:37:14.403Z,17.85
2018-01-08T11:39:14.294Z,17.57
2018-01-08T11:40:14.275Z,17.60
2018-01-08T11:41:14.300Z,17.51
2018-01-08T11:42:14.343Z,17.56
2018-01-08T11:43:14.376Z,17.46
2018-01-08T11:44:14.414Z,17.57
2018-01-08T11:45:14.447Z,17.42
2018-01-08T11:46:14.468Z,17.70
2018-01-08T11:47:14.530Z,17.57
2018-01-08T11:48:14.579Z,17.54
2018-01-08T11:49:14.766Z,17.45
2018-01-08T11:50:14.617Z,17.51
2018-01-08T11:51:14.652Z,17.54
2018-01-08T11:52:15.938Z,17.60
2018-01-08T11:53:14.701Z,17.74
2018-01-08T11:54:14.762Z,17.76
2018-01-08T11:55:14.766Z,17.79
2018-01-08T11:56:14.858Z,17.72
2018-01-08T11:57:15.055Z,17.83
2018-01-08T11:58:15.178Z,17.86
2018-01-08T11:59:14.891Z,17.68
2018-01-08T12:00:14.946Z,17.79
2018-01-08T12:01:14.983Z,17.82
2018-01-08T12:02:15.030Z,17.63
2018-01-08T12:03:15.035Z,17.68
2018-01-08T12:04:15.381Z,17.67
2018-01-08T12:05:15.112Z,17.49
2018-01-08T12:06:15.577Z,17.51
2018-01-08T12:07:16.385Z,17.51
2018-01-08T12:08:15.201Z,17.46
2018-01-08T12:09:15.207Z,17.63
2018-01-08T12:10:15.288Z,17.57
2018-01-08T12:11:15.647Z,17.45
2018-01-08T12:12:15.342Z,17.52
2018-01-08T12:13:15.367Z,17.49
2018-01-08T12:14:15.405Z,17.49
2018-01-08T12:15:15.443Z,17.08
2018-01-08T12:16:15.486Z,17.12
2018-01-08T12:17:15.519Z,17.26
2018-01-08T12:18:15.556Z,17.54
2018-01-08T12:19:15.564Z,17.48
2018-01-08T12:20:15.583Z,17.46
2018-01-08T12:21:15.632Z,17.44
2018-01-08T12:22:15.649Z,17.31
2018-01-08T12:23:16.007Z,17.33
2018-01-08T12:24:15.750Z,17.08
2018-01-08T12:25:15.780Z,17.01
2018-01-08T12:26:15.985Z,17.26
2018-01-08T12:27:15.840Z,17.23
2018-01-08T12:28:15.872Z,17.46
2018-01-08T12:29:15.902Z,17.67
2018-01-08T12:30:15.940Z,17.68
2018-01-08T12:31:15.984Z,17.85
2018-01-08T12:33:16.048Z,17.92
2018-01-08T12:34:16.071Z,18.05
2018-01-08T12:35:16.121Z,18.00
2018-01-08T12:36:16.149Z,18.16
2018-01-08T12:38:16.223Z,18.28
2018-01-08T12:39:16.459Z,18.33
2018-01-08T12:40:16.292Z,18.29
2018-01-08T12:41:16.516Z,18.49
2018-01-08T12:42:16.350Z,18.47
2018-01-08T12:43:16.375Z,18.53
2018-01-08T12:44:16.410Z,18.52
2018-01-08T12:45:16.454Z,18.53
2018-01-08T12:46:16.475Z,18.63
2018-01-08T12:47:16.520Z,18.65
2018-01-08T12:48:16.527Z,18.73
2018-01-08T12:49:16.582Z,18.75
2018-01-08T12:50:16.602Z,18.73
2018-01-08T12:51:16.645Z,18.78
2018-01-08T12:52:16.685Z,18.50
2018-01-08T12:53:16.700Z,18.50
2018-01-08T12:54:16.736Z,18.53
2018-01-08T12:55:16.784Z,18.53
2018-01-08T12:56:16.792Z,18.50
2018-01-08T12:57:16.811Z,18.53
2018-01-08T12:58:16.892Z,18.43
2018-01-08T12:59:16.900Z,18.49
2018-01-08T13:00:16.920Z,18.43
2018-01-08T13:01:16.990Z,18.52
2018-01-08T13:02:17.001Z,18.56
2018-01-08T13:03:17.046Z,18.66
2018-01-08T13:04:17.193Z,18.63
2018-01-08T13:05:17.099Z,18.63
2018-01-08T13:06:17.136Z,18.65
2018-01-08T13:07:17.169Z,18.65